createdAt,value
2023-04-24T00:00:00.328Z,82
2023-04-24T00:04:00.494Z,82
2023-04-24T00:08:00.361Z,82
2023-04-24T00:12:00.352Z,82
2023-04-24T00:16:00.357Z,82
2023-04-24T00:20:00.367Z,82
2023-04-24T00:24:00.341Z,82
2023-04-24T00:28:00.411Z,83
2023-04-24T00:32:00.385Z,82
2023-04-24T00:36:00.336Z,82
2023-04-24T00:40:00.348Z,83
2023-04-24T00:44:00.364Z,83
2023-04-24T00:48:00.426Z,83
2023-04-24T00:52:00.350Z,83
2023-04-24T00:56:00.397Z,83
2023-04-24T01:00:00.338Z,83
2023-04-24T01:04:00.776Z,83
2023-04-24T01:08:00.343Z,83
2023-04-24T01:12:00.353Z,83
2023-04-24T01:16:00.397Z,84
2023-04-24T01:20:00.372Z,84
2023-04-24T01:24:00.353Z,84
2023-04-24T01:28:00.349Z,84
2023-04-24T01:32:00.343Z,84
2023-04-24T01:36:00.353Z,84
2023-04-24T01:40:00.367Z,84
2023-04-24T01:44:00.349Z,84
2023-04-24T01:48:00.456Z,84
2023-04-24T01:52:00.357Z,84
2023-04-24T01:56:00.337Z,85
2023-04-24T02:00:00.364Z,85
2023-04-24T02:04:00.530Z,85
2023-04-24T02:08:00.337Z,85
2023-04-24T02:12:00.361Z,85
2023-04-24T02:16:00.381Z,85
2023-04-24T02:20:00.334Z,85
2023-04-24T02:24:00.345Z,85
2023-04-24T02:28:00.339Z,85
2023-04-24T02:32:00.411Z,85
2023-04-24T02:36:00.337Z,85
2023-04-24T02:40:00.369Z,85
2023-04-24T02:44:01.357Z,85
2023-04-24T02:48:00.424Z,85
2023-04-24T02:52:00.357Z,85
2023-04-24T02:56:00.346Z,85
2023-04-24T03:00:00.367Z,85
2023-04-24T03:04:00.675Z,86
2023-04-24T03:08:00.354Z,86
2023-04-24T03:12:00.362Z,86
2023-04-24T03:16:00.429Z,86
2023-04-24T03:20:00.346Z,86
2023-04-24T03:24:00.354Z,86
2023-04-24T03:28:00.365Z,86
2023-04-24T03:32:00.474Z,86
2023-04-24T03:36:00.384Z,86
2023-04-24T03:40:00.357Z,86
2023-04-24T03:44:00.373Z,86
2023-04-24T03:48:00.427Z,86
2023-04-24T03:52:00.351Z,86
2023-04-24T03:56:00.361Z,86
2023-04-24T04:00:00.350Z,86
2023-04-24T04:04:00.499Z,86
2023-04-24T04:08:00.356Z,86
2023-04-24T04:12:00.374Z,86
2023-04-24T04:16:00.395Z,86
2023-04-24T04:20:00.389Z,86
2023-04-24T04:24:00.357Z,86
2023-04-24T04:28:00.343Z,86
2023-04-24T04:32:00.369Z,86
2023-04-24T04:36:00.566Z,86
2023-04-24T04:40:00.325Z,86
2023-04-24T04:44:00.351Z,86
2023-04-24T04:48:00.395Z,86
2023-04-24T04:52:00.354Z,86
2023-04-24T04:56:00.334Z,86
2023-04-24T05:00:00.349Z,86
2023-04-24T05:04:00.608Z,86
2023-04-24T05:08:00.348Z,86
2023-04-24T05:12:00.358Z,86
2023-04-24T05:16:00.349Z,86
2023-04-24T05:20:00.356Z,86
2023-04-24T05:24:00.373Z,86
2023-04-24T05:28:00.365Z,86
2023-04-24T05:32:00.378Z,86
2023-04-24T05:36:00.394Z,86
2023-04-24T05:40:00.358Z,86
2023-04-24T05:44:00.351Z,86
2023-04-24T05:48:00.349Z,85
2023-04-24T05:52:00.369Z,85
2023-04-24T05:56:00.349Z,84
2023-04-24T06:00:00.352Z,84
2023-04-24T06:04:00.586Z,83
2023-04-24T06:08:00.358Z,82
2023-04-24T06:12:00.362Z,82
2023-04-24T06:16:00.397Z,80
2023-04-24T06:20:00.362Z,79
2023-04-24T06:24:00.364Z,78
2023-04-24T06:28:00.408Z,78
2023-04-24T06:32:00.411Z,77
2023-04-24T06:36:00.370Z,77
2023-04-24T06:40:00.395Z,77
2023-04-24T06:44:00.360Z,76
2023-04-24T06:48:00.457Z,74
2023-04-24T06:52:01.120Z,73
2023-04-24T06:56:00.351Z,69
2023-04-24T07:00:00.352Z,65
2023-04-24T07:04:00.586Z,60
2023-04-24T07:08:00.385Z,62
2023-04-24T07:12:00.376Z,60
2023-04-24T07:16:00.385Z,57
2023-04-24T07:20:00.424Z,58
2023-04-24T07:24:00.374Z,57
2023-04-24T07:28:00.373Z,57
2023-04-24T07:32:02.706Z,53
2023-04-24T07:36:00.352Z,57
2023-04-24T07:40:00.367Z,54
2023-04-24T07:44:00.353Z,55
2023-04-24T07:48:00.493Z,56
2023-04-24T07:52:00.359Z,55
2023-04-24T07:56:00.356Z,55
2023-04-24T08:00:00.364Z,52
2023-04-24T08:04:00.657Z,51
2023-04-24T08:08:00.339Z,50
2023-04-24T08:12:00.367Z,51
2023-04-24T08:16:00.393Z,52
2023-04-24T08:20:00.347Z,52
2023-04-24T08:24:00.342Z,50
2023-04-24T08:28:00.356Z,49
2023-04-24T08:32:00.420Z,47
2023-04-24T08:36:00.357Z,47
2023-04-24T08:40:00.372Z,46
2023-04-24T08:44:00.364Z,46
2023-04-24T08:48:00.407Z,45
2023-04-24T08:52:00.397Z,47
2023-04-24T08:56:00.401Z,47
2023-04-24T09:00:00.398Z,46
2023-04-24T09:04:00.553Z,48
2023-04-24T09:08:00.386Z,47
2023-04-24T09:12:00.432Z,49
2023-04-24T09:16:00.391Z,49
2023-04-24T09:20:00.404Z,50
2023-04-24T09:24:00.392Z,49
2023-04-24T09:28:00.413Z,50
2023-04-24T09:32:00.472Z,50
2023-04-24T09:36:00.391Z,50
2023-04-24T09:40:00.402Z,50
2023-04-24T09:44:00.385Z,51
2023-04-24T09:48:00.497Z,52
2023-04-24T09:52:00.368Z,53
2023-04-24T09:56:00.365Z,53
2023-04-24T10:00:00.343Z,53
2023-04-24T10:04:00.351Z,54
2023-04-24T10:08:00.343Z,53
2023-04-24T10:12:00.346Z,53
2023-04-24T10:16:00.346Z,53
2023-04-24T10:20:00.360Z,53
2023-04-24T10:24:00.342Z,53
2023-04-24T10:28:00.367Z,53
2023-04-24T10:32:00.373Z,50
2023-04-24T10:36:00.356Z,49
2023-04-24T10:40:00.351Z,50
2023-04-24T10:44:00.356Z,50
2023-04-24T10:48:00.388Z,50
2023-04-24T10:52:00.374Z,49
2023-04-24T10:56:00.346Z,49
2023-04-24T11:00:00.357Z,46
2023-04-24T11:04:00.478Z,47
2023-04-24T11:08:00.350Z,48
2023-04-24T11:12:00.315Z,47
2023-04-24T11:16:00.358Z,45
2023-04-24T11:20:00.618Z,44
2023-04-24T11:24:00.331Z,42
2023-04-24T11:28:00.311Z,41
2023-04-24T11:32:00.355Z,43
2023-04-24T11:36:00.355Z,44
2023-04-24T11:40:00.894Z,47
2023-04-24T11:44:00.357Z,47
2023-04-24T11:48:00.442Z,48
2023-04-24T11:52:01.267Z,50
2023-04-24T11:56:00.339Z,53
2023-04-24T12:00:01.074Z,51
2023-04-24T12:04:00.704Z,49
2023-04-24T12:08:00.362Z,46
2023-04-24T12:12:00.380Z,46
2023-04-24T12:16:00.392Z,47
2023-04-24T12:20:00.351Z,46
2023-04-24T12:24:00.339Z,43
2023-04-24T12:28:00.321Z,42
2023-04-24T12:32:00.350Z,43
2023-04-24T12:36:00.345Z,40
2023-04-24T12:40:00.342Z,42
2023-04-24T12:44:00.356Z,42
2023-04-24T12:48:00.471Z,38
2023-04-24T12:52:00.371Z,37
2023-04-24T12:56:00.352Z,35
2023-04-24T13:00:00.341Z,34
2023-04-24T13:04:00.495Z,35
2023-04-24T13:08:00.369Z,35
2023-04-24T13:12:00.345Z,34
2023-04-24T13:16:00.391Z,34
2023-04-24T13:20:00.366Z,33
2023-04-24T13:24:00.364Z,32
2023-04-24T13:28:00.367Z,31
2023-04-24T13:32:00.387Z,31
2023-04-24T13:36:00.347Z,31
2023-04-24T13:40:00.348Z,31
2023-04-24T13:44:00.347Z,31
2023-04-24T13:48:00.410Z,31
2023-04-24T13:52:00.381Z,32
2023-04-24T13:56:00.368Z,32
2023-04-24T14:00:00.328Z,32
2023-04-24T14:04:00.517Z,32
2023-04-24T14:08:00.335Z,30
2023-04-24T14:12:00.342Z,30
2023-04-24T14:16:00.384Z,30
2023-04-24T14:20:00.356Z,30
2023-04-24T14:24:00.336Z,30
2023-04-24T14:28:00.366Z,31
2023-04-24T14:32:00.640Z,30
2023-04-24T14:36:00.382Z,31
2023-04-24T14:40:17.859Z,31
2023-04-24T14:44:00.375Z,31
2023-04-24T14:48:00.420Z,32
2023-04-24T14:52:00.372Z,32
2023-04-24T14:56:00.364Z,31
2023-04-24T15:00:00.408Z,31
2023-04-24T15:04:00.474Z,31
2023-04-24T15:08:00.335Z,30
2023-04-24T15:12:00.376Z,30
2023-04-24T15:16:00.360Z,31
2023-04-24T15:20:00.348Z,32
2023-04-24T15:24:00.348Z,32
2023-04-24T15:28:00.360Z,32
2023-04-24T15:32:00.433Z,32
2023-04-24T15:36:00.337Z,31
2023-04-24T15:40:00.581Z,31
2023-04-24T15:44:00.338Z,31
2023-04-24T15:48:00.405Z,32
2023-04-24T15:52:00.331Z,33
2023-04-24T15:56:00.339Z,33
2023-04-24T16:00:00.367Z,34
2023-04-24T16:04:00.587Z,35
2023-04-24T16:08:00.371Z,34
2023-04-24T16:12:00.369Z,35
2023-04-24T16:16:00.475Z,36
2023-04-24T16:20:00.350Z,37
2023-04-24T16:24:00.376Z,38
2023-04-24T16:28:00.350Z,38
2023-04-24T16:32:00.398Z,39
2023-04-24T16:36:00.385Z,40
2023-04-24T16:40:00.352Z,40
2023-04-24T16:44:00.347Z,40
2023-04-24T16:48:00.383Z,40
2023-04-24T16:52:00.420Z,40
2023-04-24T16:56:00.381Z,40
2023-04-24T17:00:00.362Z,43
2023-04-24T17:04:00.479Z,43
2023-04-24T17:08:00.403Z,44
2023-04-24T17:12:00.366Z,46
2023-04-24T17:16:00.371Z,46
2023-04-24T17:20:05.657Z,47
2023-04-24T17:24:00.360Z,47
2023-04-24T17:28:00.351Z,47
2023-04-24T17:32:00.398Z,50
2023-04-24T17:36:00.348Z,50
2023-04-24T17:40:00.335Z,50
2023-04-24T17:44:00.359Z,52
2023-04-24T17:48:00.397Z,52
2023-04-24T17:52:00.346Z,53
2023-04-24T17:56:00.382Z,53
2023-04-24T18:00:00.359Z,53
2023-04-24T18:04:00.532Z,54
2023-04-24T18:08:00.350Z,54
2023-04-24T18:12:00.363Z,54
2023-04-24T18:16:00.545Z,54
2023-04-24T18:20:00.371Z,54
2023-04-24T18:24:00.450Z,54
2023-04-24T18:28:00.390Z,55
2023-04-24T18:32:00.385Z,55
2023-04-24T18:36:00.547Z,55
2023-04-24T18:40:00.344Z,55
2023-04-24T18:44:00.363Z,56
2023-04-24T18:48:00.372Z,56
2023-04-24T18:52:01.755Z,56
2023-04-24T18:56:00.342Z,56
2023-04-24T19:00:00.342Z,56
2023-04-24T19:04:00.503Z,56
2023-04-24T19:08:00.343Z,56
2023-04-24T19:12:00.325Z,57
2023-04-24T19:16:00.446Z,57
2023-04-24T19:20:00.350Z,58
2023-04-24T19:24:00.365Z,58
2023-04-24T19:28:00.357Z,58
2023-04-24T19:32:00.430Z,58
2023-04-24T19:36:00.367Z,59
2023-04-24T19:40:00.348Z,59
2023-04-24T19:44:00.353Z,59
2023-04-24T19:48:00.391Z,59
2023-04-24T19:52:00.358Z,59
2023-04-24T19:56:00.370Z,59
2023-04-24T20:00:00.344Z,59
2023-04-24T20:04:00.514Z,59
2023-04-24T20:08:00.366Z,60
2023-04-24T20:12:00.377Z,60
2023-04-24T20:16:00.465Z,59
2023-04-24T20:20:00.528Z,60
2023-04-24T20:24:00.338Z,61
2023-04-24T20:28:00.367Z,61
2023-04-24T20:32:00.384Z,60
2023-04-24T20:36:00.367Z,63
2023-04-24T20:40:00.387Z,62
2023-04-24T20:44:00.401Z,62
2023-04-24T20:48:00.391Z,62
2023-04-24T20:52:00.374Z,62
2023-04-24T20:56:00.380Z,62
2023-04-24T21:00:00.375Z,62
2023-04-24T21:04:00.386Z,64
2023-04-24T21:08:00.354Z,63
2023-04-24T21:12:00.385Z,64
2023-04-24T21:16:00.338Z,64
2023-04-24T21:20:00.345Z,65
2023-04-24T21:24:00.330Z,66
2023-04-24T21:28:00.378Z,66
2023-04-24T21:32:00.318Z,66
2023-04-24T21:36:00.329Z,66
2023-04-24T21:40:00.315Z,67
2023-04-24T21:44:00.341Z,67
2023-04-24T21:48:00.330Z,67
2023-04-24T21:52:00.329Z,67
2023-04-24T21:56:00.321Z,68
2023-04-24T22:00:00.334Z,68
2023-04-24T22:04:00.448Z,68
2023-04-24T22:08:00.330Z,69
2023-04-24T22:12:00.322Z,69
2023-04-24T22:16:00.414Z,70
2023-04-24T22:20:00.331Z,70
2023-04-24T22:24:00.358Z,70
2023-04-24T22:28:00.354Z,70
2023-04-24T22:32:00.393Z,70
2023-04-24T22:36:00.343Z,70
2023-04-24T22:40:00.353Z,70
2023-04-24T22:44:00.363Z,70
2023-04-24T22:48:00.430Z,70
2023-04-24T22:52:00.350Z,71
2023-04-24T22:56:00.337Z,71
2023-04-24T23:00:00.337Z,72
2023-04-24T23:04:00.415Z,72
2023-04-24T23:08:00.336Z,73
2023-04-24T23:12:00.317Z,73
2023-04-24T23:20:00.338Z,73
2023-04-24T23:24:00.353Z,73
2023-04-24T23:28:00.332Z,73
2023-04-24T23:32:00.627Z,73
2023-04-24T23:36:00.315Z,74
2023-04-24T23:40:00.339Z,74
2023-04-24T23:44:00.338Z,74
2023-04-24T23:48:00.396Z,73
2023-04-24T23:52:00.340Z,73
2023-04-24T23:56:00.357Z,72
